METAR Data
IDs: Format: Raw Decoded Include TAF

Data at: 0141 UTC 25 Mar 2019

KTVK 250135Z AUTO 02008KT 2 1/2SM BR BKN003 09/09 A3004 RMK AO2
KTVK 250115Z AUTO 02008KT 2SM BR OVC003 09/09 A3003 RMK AO2
KTVK 250055Z AUTO 01008KT 2SM BR OVC002 09/09 A3003 RMK AO2 P0005
KTVK 250035Z AUTO 36006KT 1 1/4SM -RA OVC003 09/09 A3002 RMK AO2 P0005
KTVK 250015Z AUTO 35005KT 3/4SM RA OVC002 09/09 A3002 RMK AO2 P0004
KTVK 242355Z AUTO 01005KT 2 1/2SM BR SCT002 BKN012 09/09 A3001 RMK AO2
KTVK 242335Z AUTO 03005KT 2 1/2SM -RA BKN003 BKN012 BKN017 09/09 A3000 RMK AO2
KTVK 242315Z AUTO 03007KT 4SM BR BKN004 BKN014 09/09 A2999 RMK AO2
KTVK 242255Z AUTO 04005KT 5SM BR SCT004 BKN014 10/10 A2999 RMK AO2
KTVK 242235Z AUTO 03005KT 7SM BKN010 10/10 A2999 RMK AO2
KTVK 242215Z AUTO 02005KT 10SM OVC010 10/10 A2998 RMK AO2
KTVK 242155Z AUTO 03004KT 10SM BKN008 10/10 A2998 RMK AO2
KTVK 242135Z AUTO 04006KT 10SM BKN008 BKN014 10/10 A2997 RMK AO2
KTVK 242115Z AUTO 05005KT 10SM SCT008 BKN014 10/10 A2997 RMK AO2
KTVK 242055Z AUTO 08003KT 10SM SCT008 BKN012 10/10 A2997 RMK AO2
KTVK 242035Z AUTO 10004KT 10SM FEW006 BKN012 10/10 A2997 RMK AO2
KTVK 242015Z AUTO 10006KT 10SM BKN006 10/10 A2996 RMK AO2
KTVK 241955Z AUTO 11006KT 9SM BKN006 10/10 A2996 RMK AO2
KTVK 241935Z AUTO 11007KT 10SM BKN006 10/10 A2997 RMK AO2
KTVK 241915Z AUTO 09005KT 8SM SCT006 10/10 A2997 RMK AO2
KTVK 241855Z AUTO 10004KT 7SM -RA BKN009 10/10 A2997 RMK AO2 P0002
KTVK 241835Z AUTO 09003KT 7SM FEW006 09/09 A2998 RMK AO2
KTVK 241815Z AUTO 00000KT 5SM BR BKN006 09/09 A2998 RMK AO2
KTVK 241755Z AUTO 13006KT 3SM -RA BKN006 10/10 A2999 RMK AO2 P0002
KTVK 241735Z AUTO 03003KT 5SM -RA SCT006 10/10 A2998 RMK AO2
KTVK 241715Z AUTO 03005KT 8SM FEW006 FEW029 09/09 A2998 RMK AO2
KTVK 241655Z AUTO 04006KT 4SM -RA FEW011 SCT017 SCT028 09/09 A2997 RMK AO2 P0001
KTVK 241635Z AUTO 13003KT 9SM SCT009 BKN017 09/09 A3001 RMK AO2
KTVK 241615Z AUTO 14005KT 9SM BKN011 09/09 A3002 RMK AO2
KTVK 241555Z AUTO 13006KT 4SM -RA BKN011 09/09 A3001 RMK AO2 P0001
KTVK 241535Z AUTO 10007KT 10SM BKN013 09/08 A3000 RMK AO2
KTVK 241515Z AUTO 12006KT 6SM -RA BKN015 09/08 A3001 RMK AO2
KTVK 241455Z AUTO 14008KT 9SM FEW010 BKN015 09/08 A3000 RMK AO2
KTVK 241435Z AUTO 13007KT 10SM SCT015 09/08 A3000 RMK AO2
KTVK 241415Z AUTO 10007KT 10SM CLR 08/08 A2999 RMK AO2
KTVK 241355Z AUTO 10005KT 10SM SCT017 08/08 A2998 RMK AO2
KTVK 241335Z AUTO 10008KT 10SM BKN017 08/08 A2999 RMK AO2
KTVK 241315Z AUTO 11008KT 10SM OVC017 08/08 A2999 RMK AO2
KTVK 241255Z AUTO 12006KT 9SM OVC017 08/08 A2999 RMK AO2
KTVK 241235Z AUTO 12007KT 9SM OVC017 07/07 A3000 RMK AO2
KTVK 241215Z AUTO 12006KT 7SM OVC017 07/07 A3000 RMK AO2
KTVK 241155Z AUTO 12006KT 10SM OVC019 07/07 A3000 RMK AO2
KTVK 241135Z AUTO 14005KT 7SM BKN021 07/07 A3001 RMK AO2
KTVK 241115Z AUTO 12007KT 5SM BR BKN023 07/07 A3000 RMK AO2
KTVK 241055Z AUTO 11006KT 9SM BKN023 07/07 A3000 RMK AO2
KTVK 241035Z AUTO 12005KT 10SM BKN025 07/07 A3001 RMK AO2
KTVK 241015Z AUTO 13005KT 9SM BKN029 BKN037 07/07 A3001 RMK AO2
KTVK 240955Z AUTO 12006KT 9SM SCT029 BKN037 07/07 A3001 RMK AO2
KTVK 240935Z AUTO 12006KT 9SM SCT029 07/07 A3002 RMK AO2
KTVK 240915Z AUTO 12006KT 10SM FEW029 SCT048 07/07 A3002 RMK AO2
KTVK 240855Z AUTO 12007KT 10SM BKN038 07/07 A3002 RMK AO2 P0001
KTVK 240835Z AUTO 12007KT 10SM OVC040 07/07 A3003 RMK AO2 P0001
KTVK 240815Z AUTO 11007KT 6SM -RA FEW021 SCT038 OVC045 07/07 A3003 RMK AO2 P0001
KTVK 240755Z AUTO 12007KT 10SM OVC039 07/07 A3004 RMK AO2
KTVK 240735Z AUTO 12006KT 10SM OVC039 07/07 A3005 RMK AO2
KTVK 240715Z AUTO 12007KT 10SM OVC043 07/07 A3005 RMK AO2
KTVK 240655Z AUTO 12007KT 10SM OVC043 06/06 A3006 RMK AO2
KTVK 240635Z AUTO 11007KT 8SM -RA OVC041 07/06 A3007 RMK AO2
KTVK 240615Z AUTO 12007KT 10SM BKN037 OVC043 07/06 A3007 RMK AO2
KTVK 240555Z AUTO 12007KT 7SM BKN036 OVC044 07/06 A3008 RMK AO2 P0001
KTVK 240535Z AUTO 13007KT 10SM -RA BKN041 BKN047 07/05 A3008 RMK AO2
KTVK 240515Z AUTO 13006KT 8SM -RA FEW041 BKN047 BKN060 07/05 A3009 RMK AO2
KTVK 240455Z AUTO 14007KT 8SM -RA FEW047 SCT060 08/04 A3009 RMK AO2
KTVK 240435Z AUTO 13007KT 10SM CLR 08/03 A3009 RMK AO2
KTVK 240415Z AUTO 12007KT 10SM FEW050 08/02 A3009 RMK AO2
KTVK 240355Z AUTO 12008KT 10SM SCT050 08/02 A3009 RMK AO2
KTVK 240335Z AUTO 12008KT 10SM FEW050 09/02 A3010 RMK AO2
KTVK 240315Z AUTO 11007KT 10SM FEW050 09/02 A3010 RMK AO2
KTVK 240255Z AUTO 11007KT 10SM FEW050 09/02 A3010 RMK AO2
KTVK 240235Z AUTO 12009KT 10SM CLR 09/02 A3010 RMK AO2
KTVK 240215Z AUTO 12008KT 10SM FEW070 09/02 A3010 RMK AO2
KTVK 240155Z AUTO 10009KT 10SM SCT042 BKN055 10/02 A3009 RMK AO2
KTVK 240135Z AUTO 12008KT 10SM SCT038 10/02 A3010 RMK AO2
KTVK 240115Z AUTO 11008KT 10SM CLR 10/02 A3009 RMK AO2
KTVK 240055Z AUTO 10008KT 10SM CLR 10/02 A3008 RMK AO2
KTVK 240035Z AUTO 10006KT 10SM CLR 10/02 A3009 RMK AO2
KTVK 240015Z AUTO 11008KT 10SM FEW070 10/02 A3010 RMK AO2
KTVK 232355Z AUTO 11008KT 10SM CLR 10/02 A3011 RMK AO2
KTVK 232335Z AUTO 10010KT 10SM CLR 11/02 A3010 RMK AO2
KTVK 232315Z AUTO 11008KT 10SM CLR 11/02 A3011 RMK AO2
KTVK 232255Z AUTO 10011KT 10SM CLR 11/02 A3011 RMK AO2
KTVK 232235Z AUTO 11009KT 10SM CLR 12/02 A3012 RMK AO2
KTVK 232215Z AUTO 10014KT 10SM CLR 12/02 A3012 RMK AO2
KTVK 232155Z AUTO 10009KT 10SM CLR 12/02 A3012 RMK AO2
KTVK 232135Z AUTO 10012KT 10SM CLR 12/02 A3012 RMK AO2
KTVK 232115Z AUTO 10011G19KT 10SM FEW100 12/02 A3013 RMK AO2
KTVK 232055Z AUTO 11013G18KT 10SM FEW110 13/02 A3013 RMK AO2
KTVK 232035Z AUTO 10011KT 10SM FEW120 12/01 A3013 RMK AO2
KTVK 232015Z AUTO 11012KT 10SM CLR 13/02 A3014 RMK AO2
KTVK 231955Z AUTO 11009KT 10SM CLR 12/01 A3015 RMK AO2
KTVK 231935Z AUTO 12010KT 10SM CLR 12/01 A3016 RMK AO2
KTVK 231915Z AUTO 12009KT 10SM FEW095 12/01 A3017 RMK AO2
KTVK 231855Z AUTO 11011KT 10SM FEW085 13/01 A3017 RMK AO2
KTVK 231835Z AUTO 13011KT 10SM FEW110 13/01 A3018 RMK AO2
KTVK 231815Z AUTO 12012G15KT 10SM CLR 12/02 A3019 RMK AO2
KTVK 231755Z AUTO 13009G15KT 10SM FEW090 12/00 A3020 RMK AO2
KTVK 231735Z AUTO 13013KT 10SM FEW038 12/01 A3019 RMK AO2
KTVK 231715Z AUTO 12012KT 10SM CLR 12/01 A3020 RMK AO2
KTVK 231655Z AUTO 13010KT 10SM CLR 11/02 A3020 RMK AO2
KTVK 231635Z AUTO 11012KT 10SM CLR 11/02 A3020 RMK AO2
KTVK 231615Z AUTO 12012KT 10SM FEW100 10/02 A3021 RMK AO2
KTVK 231555Z AUTO 12013KT 10SM FEW110 09/02 A3021 RMK AO2
KTVK 231535Z AUTO 12012KT 10SM CLR 09/02 A3022 RMK AO2
KTVK 231515Z AUTO 12010KT 10SM CLR 08/02 A3023 RMK AO2
KTVK 231455Z AUTO 14011KT 10SM CLR 07/02 A3023 RMK AO2
KTVK 231435Z AUTO 13009KT 10SM CLR 07/02 A3024 RMK AO2
KTVK 231415Z AUTO 12007KT 10SM CLR 05/01 A3023 RMK AO2
KTVK 231355Z AUTO 12008KT 10SM CLR 04/00 A3023 RMK AO2